Carrot River, Canada
Current Conditions -  °F | °C
As of 8:00 AM on Tuesday 27 Jan 2015 (Local Time) from CYBU Reporting Station
Overcast Overcast  
Wind Chill: 21°   Ceiling: 17000
Heat Index: 27°   Visibility: 9mi
Dew Point: 27°   Wind: 5mph
Humidity: 100%   Direction: 350°N
Pressure: 29.83"   Gusts: NA
Location:  53.28°N, 103.58°W
Report Text: CYBU 271400Z AUTO 35004KT 9SM OVC170 M03/M03 A2983 RMK PRESRR SLP121
Loading
Personal Weather Stations






























Interactive Weather Map New forecast layout! Learn more

10-Day Weather Forecast

Advertisements
Track Severe Weather on mobile